In Amenas, Algeria
Current Conditions -  °F | °C
As of 3:00 PM on Sunday 23 Nov 2014 (Local Time) from DAUZ Reporting Station
Clear Clear  
Wind Chill: 79°   Ceiling: Unl
Heat Index: 79°   Visibility: 6mi
Dew Point: 36°   Wind: 12mph
Humidity: 21%   Direction: 130°SE
Pressure: 30.15"   Gusts: NA
Location:  28.05°N, 9.56°E
Report Text: DAUZ 231400Z 13010KT CAVOK 26/02 Q1021
Loading
Personal Weather Stations






























Interactive Weather Map New forecast layout! Learn more

10-Day Weather Forecast

Advertisements
Track Severe Weather on mobile